sensor_id;sensor_type;location;lat;lon;timestamp;P1;durP1;ratioP1;P2;durP2;ratioP2
79412;SDS011;68863;49.528;11.010;2023-04-15T00:00:13;7.53;;;3.17;;
79412;SDS011;68863;49.528;11.010;2023-04-15T00:01:14;8.45;;;3.90;;
79412;SDS011;68863;49.528;11.010;2023-04-15T00:02:18;7.82;;;3.80;;
79412;SDS011;68863;49.528;11.010;2023-04-15T00:03:18;6.55;;;3.45;;
79412;SDS011;68863;49.528;11.010;2023-04-15T00:04:19;8.25;;;3.88;;
79412;SDS011;68863;49.528;11.010;2023-04-15T00:05:19;6.70;;;3.47;;
79412;SDS011;68863;49.528;11.010;2023-04-15T00:06:20;7.75;;;4.43;;
79412;SDS011;68863;49.528;11.010;2023-04-15T00:07:21;7.50;;;3.67;;
79412;SDS011;68863;49.528;11.010;2023-04-15T00:08:21;8.35;;;3.70;;
79412;SDS011;68863;49.528;11.010;2023-04-15T00:09:22;8.45;;;4.10;;
79412;SDS011;68863;49.528;11.010;2023-04-15T00:10:22;9.07;;;4.15;;
79412;SDS011;68863;49.528;11.010;2023-04-15T00:11:22;7.57;;;3.72;;
79412;SDS011;68863;49.528;11.010;2023-04-15T00:12:26;7.80;;;3.80;;
79412;SDS011;68863;49.528;11.010;2023-04-15T00:13:27;7.47;;;3.53;;
79412;SDS011;68863;49.528;11.010;2023-04-15T00:14:27;6.83;;;3.43;;
79412;SDS011;68863;49.528;11.010;2023-04-15T00:15:28;8.07;;;3.85;;
79412;SDS011;68863;49.528;11.010;2023-04-15T00:16:28;7.60;;;4.43;;
79412;SDS011;68863;49.528;11.010;2023-04-15T00:17:28;6.73;;;3.40;;
79412;SDS011;68863;49.528;11.010;2023-04-15T00:18:29;6.03;;;3.08;;
79412;SDS011;68863;49.528;11.010;2023-04-15T00:19:30;6.35;;;3.25;;
79412;SDS011;68863;49.528;11.010;2023-04-15T00:20:31;6.93;;;3.10;;
79412;SDS011;68863;49.528;11.010;2023-04-15T00:21:31;7.55;;;3.47;;
79412;SDS011;68863;49.528;11.010;2023-04-15T00:22:32;6.53;;;3.33;;
79412;SDS011;68863;49.528;11.010;2023-04-15T00:23:35;7.88;;;3.63;;
79412;SDS011;68863;49.528;11.010;2023-04-15T00:24:35;7.20;;;3.00;;
79412;SDS011;68863;49.528;11.010;2023-04-15T00:25:36;6.85;;;3.03;;
79412;SDS011;68863;49.528;11.010;2023-04-15T00:26:36;8.15;;;3.60;;
79412;SDS011;68863;49.528;11.010;2023-04-15T00:27:37;7.50;;;3.60;;
79412;SDS011;68863;49.528;11.010;2023-04-15T00:28:37;6.85;;;3.15;;
79412;SDS011;68863;49.528;11.010;2023-04-15T00:29:38;6.18;;;2.90;;
79412;SDS011;68863;49.528;11.010;2023-04-15T00:30:38;6.70;;;2.75;;
79412;SDS011;68863;49.528;11.010;2023-04-15T00:31:38;7.55;;;2.90;;
79412;SDS011;68863;49.528;11.010;2023-04-15T00:32:39;5.63;;;2.75;;
79412;SDS011;68863;49.528;11.010;2023-04-15T00:33:41;5.68;;;2.65;;
79412;SDS011;68863;49.528;11.010;2023-04-15T00:34:41;5.53;;;2.53;;
79412;SDS011;68863;49.528;11.010;2023-04-15T00:35:41;6.82;;;2.75;;
79412;SDS011;68863;49.528;11.010;2023-04-15T00:36:42;6.15;;;2.55;;
79412;SDS011;68863;49.528;11.010;2023-04-15T00:37:43;5.85;;;2.70;;
79412;SDS011;68863;49.528;11.010;2023-04-15T00:38:43;6.23;;;2.80;;
79412;SDS011;68863;49.528;11.010;2023-04-15T00:39:43;5.90;;;2.72;;
79412;SDS011;68863;49.528;11.010;2023-04-15T00:40:44;6.05;;;2.88;;
79412;SDS011;68863;49.528;11.010;2023-04-15T00:41:45;6.32;;;2.90;;
79412;SDS011;68863;49.528;11.010;2023-04-15T00:42:48;7.80;;;2.83;;
79412;SDS011;68863;49.528;11.010;2023-04-15T00:43:49;6.53;;;2.83;;
79412;SDS011;68863;49.528;11.010;2023-04-15T00:44:50;7.95;;;2.63;;
79412;SDS011;68863;49.528;11.010;2023-04-15T00:45:51;6.18;;;3.10;;
79412;SDS011;68863;49.528;11.010;2023-04-15T00:46:53;6.18;;;3.15;;
79412;SDS011;68863;49.528;11.010;2023-04-15T00:47:54;6.82;;;2.85;;
79412;SDS011;68863;49.528;11.010;2023-04-15T00:48:55;7.00;;;2.90;;
79412;SDS011;68863;49.528;11.010;2023-04-15T00:49:55;6.47;;;3.30;;
79412;SDS011;68863;49.528;11.010;2023-04-15T00:50:55;5.80;;;2.58;;
79412;SDS011;68863;49.528;11.010;2023-04-15T00:51:56;6.45;;;3.08;;
79412;SDS011;68863;49.528;11.010;2023-04-15T00:52:56;6.55;;;2.78;;
79412;SDS011;68863;49.528;11.010;2023-04-15T00:53:57;6.55;;;3.25;;
79412;SDS011;68863;49.528;11.010;2023-04-15T00:54:57;5.72;;;2.58;;
79412;SDS011;68863;49.528;11.010;2023-04-15T00:55:58;7.18;;;3.38;;
79412;SDS011;68863;49.528;11.010;2023-04-15T00:56:58;6.63;;;3.40;;
79412;SDS011;68863;49.528;11.010;2023-04-15T00:57:59;7.10;;;3.00;;
79412;SDS011;68863;49.528;11.010;2023-04-15T00:59:00;6.65;;;2.95;;
79412;SDS011;68863;49.528;11.010;2023-04-15T01:00:01;6.70;;;2.80;;
79412;SDS011;68863;49.528;11.010;2023-04-15T01:02:04;6.45;;;3.17;;
79412;SDS011;68863;49.528;11.010;2023-04-15T01:03:04;6.85;;;2.97;;
79412;SDS011;68863;49.528;11.010;2023-04-15T01:04:04;7.50;;;2.97;;
79412;SDS011;68863;49.528;11.010;2023-04-15T01:05:05;5.07;;;2.67;;
79412;SDS011;68863;49.528;11.010;2023-04-15T01:06:06;7.65;;;3.17;;
79412;SDS011;68863;49.528;11.010;2023-04-15T01:07:07;5.63;;;2.50;;
79412;SDS011;68863;49.528;11.010;2023-04-15T01:08:08;6.15;;;2.47;;
79412;SDS011;68863;49.528;11.010;2023-04-15T01:09:08;5.97;;;3.13;;
79412;SDS011;68863;49.528;11.010;2023-04-15T01:10:10;7.15;;;3.15;;
79412;SDS011;68863;49.528;11.010;2023-04-15T01:11:11;5.45;;;2.72;;
79412;SDS011;68863;49.528;11.010;2023-04-15T01:12:12;6.13;;;2.88;;
79412;SDS011;68863;49.528;11.010;2023-04-15T01:13:15;6.28;;;2.80;;
79412;SDS011;68863;49.528;11.010;2023-04-15T01:14:15;5.65;;;2.78;;
79412;SDS011;68863;49.528;11.010;2023-04-15T01:15:16;6.72;;;2.63;;
79412;SDS011;68863;49.528;11.010;2023-04-15T01:16:17;5.65;;;2.97;;
79412;SDS011;68863;49.528;11.010;2023-04-15T01:17:18;6.30;;;2.78;;
79412;SDS011;68863;49.528;11.010;2023-04-15T01:18:18;5.63;;;2.58;;
79412;SDS011;68863;49.528;11.010;2023-04-15T01:19:20;5.70;;;2.88;;
79412;SDS011;68863;49.528;11.010;2023-04-15T01:20:20;6.32;;;2.28;;
79412;SDS011;68863;49.528;11.010;2023-04-15T01:21:21;6.43;;;2.50;;
79412;SDS011;68863;49.528;11.010;2023-04-15T01:22:23;6.10;;;2.25;;
79412;SDS011;68863;49.528;11.010;2023-04-15T01:23:24;5.32;;;2.30;;
79412;SDS011;68863;49.528;11.010;2023-04-15T01:24:25;6.72;;;2.95;;
79412;SDS011;68863;49.528;11.010;2023-04-15T01:26:37;5.10;;;1.98;;
79412;SDS011;68863;49.528;11.010;2023-04-15T01:27:39;5.45;;;2.20;;
79412;SDS011;68863;49.528;11.010;2023-04-15T01:28:41;5.50;;;2.38;;
79412;SDS011;68863;49.528;11.010;2023-04-15T01:29:41;5.47;;;2.30;;
79412;SDS011;68863;49.528;11.010;2023-04-15T01:30:42;5.30;;;2.30;;
79412;SDS011;68863;49.528;11.010;2023-04-15T01:31:49;6.15;;;2.20;;
79412;SDS011;68863;49.528;11.010;2023-04-15T01:32:53;4.65;;;2.13;;
79412;SDS011;68863;49.528;11.010;2023-04-15T01:33:54;5.68;;;1.85;;
79412;SDS011;68863;49.528;11.010;2023-04-15T01:34:54;5.72;;;2.33;;
79412;SDS011;68863;49.528;11.010;2023-04-15T01:35:54;5.83;;;2.33;;
79412;SDS011;68863;49.528;11.010;2023-04-15T01:36:55;4.85;;;2.08;;
79412;SDS011;68863;49.528;11.010;2023-04-15T01:37:55;5.00;;;2.07;;
79412;SDS011;68863;49.528;11.010;2023-04-15T01:40:05;6.38;;;2.75;;
79412;SDS011;68863;49.528;11.010;2023-04-15T01:41:06;5.50;;;2.10;;
79412;SDS011;68863;49.528;11.010;2023-04-15T01:42:07;6.18;;;2.08;;
79412;SDS011;68863;49.528;11.010;2023-04-15T01:43:07;5.63;;;2.30;;
79412;SDS011;68863;49.528;11.010;2023-04-15T01:44:08;6.15;;;2.22;;
79412;SDS011;68863;49.528;11.010;2023-04-15T01:45:09;5.60;;;2.25;;
79412;SDS011;68863;49.528;11.010;2023-04-15T01:46:09;5.68;;;2.10;;
79412;SDS011;68863;49.528;11.010;2023-04-15T01:47:10;4.88;;;1.92;;
79412;SDS011;68863;49.528;11.010;2023-04-15T01:48:11;4.93;;;2.10;;
79412;SDS011;68863;49.528;11.010;2023-04-15T01:49:11;6.45;;;2.05;;
79412;SDS011;68863;49.528;11.010;2023-04-15T01:50:12;5.32;;;2.45;;
79412;SDS011;68863;49.528;11.010;2023-04-15T01:51:12;5.15;;;2.15;;
79412;SDS011;68863;49.528;11.010;2023-04-15T01:52:13;5.55;;;2.10;;
79412;SDS011;68863;49.528;11.010;2023-04-15T01:53:13;5.53;;;2.03;;
79412;SDS011;68863;49.528;11.010;2023-04-15T01:54:14;5.03;;;1.90;;
79412;SDS011;68863;49.528;11.010;2023-04-15T01:55:15;6.00;;;2.10;;
79412;SDS011;68863;49.528;11.010;2023-04-15T01:56:15;5.68;;;2.40;;
79412;SDS011;68863;49.528;11.010;2023-04-15T01:57:15;6.78;;;2.47;;
79412;SDS011;68863;49.528;11.010;2023-04-15T01:58:16;6.22;;;2.10;;
79412;SDS011;68863;49.528;11.010;2023-04-15T01:59:19;5.38;;;2.00;;
79412;SDS011;68863;49.528;11.010;2023-04-15T02:00:20;4.63;;;1.92;;
79412;SDS011;68863;49.528;11.010;2023-04-15T02:01:21;4.88;;;2.20;;
79412;SDS011;68863;49.528;11.010;2023-04-15T02:02:21;4.80;;;2.03;;
79412;SDS011;68863;49.528;11.010;2023-04-15T02:03:21;4.95;;;2.05;;
79412;SDS011;68863;49.528;11.010;2023-04-15T02:04:22;4.53;;;1.85;;
79412;SDS011;68863;49.528;11.010;2023-04-15T02:05:22;5.13;;;1.95;;
79412;SDS011;68863;49.528;11.010;2023-04-15T02:06:23;4.75;;;2.00;;
79412;SDS011;68863;49.528;11.010;2023-04-15T02:07:23;5.90;;;2.10;;
79412;SDS011;68863;49.528;11.010;2023-04-15T02:08:23;5.50;;;1.95;;
79412;SDS011;68863;49.528;11.010;2023-04-15T02:09:24;5.95;;;2.10;;
79412;SDS011;68863;49.528;11.010;2023-04-15T02:10:24;5.72;;;2.03;;
79412;SDS011;68863;49.528;11.010;2023-04-15T02:11:25;6.57;;;2.00;;
79412;SDS011;68863;49.528;11.010;2023-04-15T02:12:25;5.03;;;1.97;;
79412;SDS011;68863;49.528;11.010;2023-04-15T02:13:26;5.20;;;2.00;;
79412;SDS011;68863;49.528;11.010;2023-04-15T02:14:26;4.90;;;1.80;;
79412;SDS011;68863;49.528;11.010;2023-04-15T02:15:26;5.53;;;2.03;;
79412;SDS011;68863;49.528;11.010;2023-04-15T02:16:26;5.27;;;1.93;;
79412;SDS011;68863;49.528;11.010;2023-04-15T02:17:27;5.47;;;1.90;;
79412;SDS011;68863;49.528;11.010;2023-04-15T02:18:27;5.43;;;2.22;;
79412;SDS011;68863;49.528;11.010;2023-04-15T02:19:27;5.10;;;2.38;;
79412;SDS011;68863;49.528;11.010;2023-04-15T02:20:28;5.20;;;1.87;;
79412;SDS011;68863;49.528;11.010;2023-04-15T02:21:29;5.43;;;1.85;;
79412;SDS011;68863;49.528;11.010;2023-04-15T02:22:30;6.00;;;2.33;;
79412;SDS011;68863;49.528;11.010;2023-04-15T02:23:30;5.28;;;2.15;;
79412;SDS011;68863;49.528;11.010;2023-04-15T02:24:30;5.30;;;2.10;;
79412;SDS011;68863;49.528;11.010;2023-04-15T02:25:31;5.97;;;2.05;;
79412;SDS011;68863;49.528;11.010;2023-04-15T02:26:31;5.63;;;2.00;;
79412;SDS011;68863;49.528;11.010;2023-04-15T02:27:32;4.70;;;1.88;;
79412;SDS011;68863;49.528;11.010;2023-04-15T02:28:32;5.07;;;2.00;;
79412;SDS011;68863;49.528;11.010;2023-04-15T02:29:32;5.13;;;2.00;;
79412;SDS011;68863;49.528;11.010;2023-04-15T02:30:33;4.97;;;2.07;;
79412;SDS011;68863;49.528;11.010;2023-04-15T02:31:33;5.00;;;1.80;;
79412;SDS011;68863;49.528;11.010;2023-04-15T02:32:37;5.28;;;1.90;;
79412;SDS011;68863;49.528;11.010;2023-04-15T02:33:37;5.63;;;1.77;;
79412;SDS011;68863;49.528;11.010;2023-04-15T02:34:38;4.85;;;2.22;;
79412;SDS011;68863;49.528;11.010;2023-04-15T02:35:42;4.88;;;2.00;;
79412;SDS011;68863;49.528;11.010;2023-04-15T02:36:44;5.88;;;2.05;;
79412;SDS011;68863;49.528;11.010;2023-04-15T02:37:46;6.53;;;2.30;;
79412;SDS011;68863;49.528;11.010;2023-04-15T02:38:46;5.20;;;2.10;;
79412;SDS011;68863;49.528;11.010;2023-04-15T02:39:46;5.80;;;2.43;;
79412;SDS011;68863;49.528;11.010;2023-04-15T02:40:47;5.40;;;1.90;;
79412;SDS011;68863;49.528;11.010;2023-04-15T02:41:49;4.68;;;1.80;;
79412;SDS011;68863;49.528;11.010;2023-04-15T02:42:52;6.22;;;2.47;;
79412;SDS011;68863;49.528;11.010;2023-04-15T02:43:52;4.87;;;2.20;;
79412;SDS011;68863;49.528;11.010;2023-04-15T02:44:53;5.07;;;2.15;;
79412;SDS011;68863;49.528;11.010;2023-04-15T02:45:54;4.28;;;1.83;;
79412;SDS011;68863;49.528;11.010;2023-04-15T02:46:54;6.10;;;2.40;;
79412;SDS011;68863;49.528;11.010;2023-04-15T02:47:55;5.50;;;2.10;;
79412;SDS011;68863;49.528;11.010;2023-04-15T02:48:55;6.18;;;2.35;;
79412;SDS011;68863;49.528;11.010;2023-04-15T02:49:55;6.50;;;2.45;;
79412;SDS011;68863;49.528;11.010;2023-04-15T02:51:10;5.70;;;2.28;;
79412;SDS011;68863;49.528;11.010;2023-04-15T02:52:11;5.97;;;2.28;;
79412;SDS011;68863;49.528;11.010;2023-04-15T02:53:11;5.28;;;2.20;;
79412;SDS011;68863;49.528;11.010;2023-04-15T02:54:13;4.93;;;2.20;;
79412;SDS011;68863;49.528;11.010;2023-04-15T02:55:17;6.28;;;2.35;;
79412;SDS011;68863;49.528;11.010;2023-04-15T02:56:17;5.17;;;2.37;;
79412;SDS011;68863;49.528;11.010;2023-04-15T02:57:18;5.82;;;2.25;;
79412;SDS011;68863;49.528;11.010;2023-04-15T02:58:18;6.22;;;2.30;;
79412;SDS011;68863;49.528;11.010;2023-04-15T02:59:19;5.75;;;2.58;;
79412;SDS011;68863;49.528;11.010;2023-04-15T03:00:19;5.72;;;2.42;;
79412;SDS011;68863;49.528;11.010;2023-04-15T03:01:20;5.65;;;2.22;;
79412;SDS011;68863;49.528;11.010;2023-04-15T03:02:20;4.53;;;2.10;;
79412;SDS011;68863;49.528;11.010;2023-04-15T03:03:21;4.65;;;1.92;;
79412;SDS011;68863;49.528;11.010;2023-04-15T03:04:21;5.80;;;2.40;;
79412;SDS011;68863;49.528;11.010;2023-04-15T03:05:21;4.88;;;2.20;;
79412;SDS011;68863;49.528;11.010;2023-04-15T03:06:25;5.32;;;2.22;;
79412;SDS011;68863;49.528;11.010;2023-04-15T03:07:25;5.23;;;2.70;;
79412;SDS011;68863;49.528;11.010;2023-04-15T03:08:25;6.28;;;2.05;;
79412;SDS011;68863;49.528;11.010;2023-04-15T03:09:25;5.68;;;2.25;;
79412;SDS011;68863;49.528;11.010;2023-04-15T03:10:26;5.53;;;2.10;;
79412;SDS011;68863;49.528;11.010;2023-04-15T03:11:27;5.65;;;2.00;;
79412;SDS011;68863;49.528;11.010;2023-04-15T03:12:28;5.80;;;2.00;;
79412;SDS011;68863;49.528;11.010;2023-04-15T03:13:29;5.05;;;2.35;;
79412;SDS011;68863;49.528;11.010;2023-04-15T03:14:29;5.75;;;1.88;;
79412;SDS011;68863;49.528;11.010;2023-04-15T03:15:31;4.70;;;1.92;;
79412;SDS011;68863;49.528;11.010;2023-04-15T03:16:31;5.32;;;2.38;;
79412;SDS011;68863;49.528;11.010;2023-04-15T03:17:32;5.72;;;2.10;;
79412;SDS011;68863;49.528;11.010;2023-04-15T03:18:32;4.75;;;1.90;;
79412;SDS011;68863;49.528;11.010;2023-04-15T03:19:32;6.80;;;2.00;;
79412;SDS011;68863;49.528;11.010;2023-04-15T03:20:32;4.85;;;2.40;;
79412;SDS011;68863;49.528;11.010;2023-04-15T03:21:33;4.80;;;2.10;;
79412;SDS011;68863;49.528;11.010;2023-04-15T03:22:33;5.50;;;2.20;;
79412;SDS011;68863;49.528;11.010;2023-04-15T03:23:33;4.82;;;2.08;;
79412;SDS011;68863;49.528;11.010;2023-04-15T03:24:34;5.90;;;2.20;;
79412;SDS011;68863;49.528;11.010;2023-04-15T03:25:34;6.50;;;2.17;;
79412;SDS011;68863;49.528;11.010;2023-04-15T03:26:36;5.20;;;2.88;;
79412;SDS011;68863;49.528;11.010;2023-04-15T03:27:37;5.85;;;1.73;;
79412;SDS011;68863;49.528;11.010;2023-04-15T03:28:37;4.60;;;1.80;;
79412;SDS011;68863;49.528;11.010;2023-04-15T03:29:38;4.97;;;1.92;;
79412;SDS011;68863;49.528;11.010;2023-04-15T03:30:38;5.17;;;2.27;;
79412;SDS011;68863;49.528;11.010;2023-04-15T03:31:38;5.40;;;2.13;;
79412;SDS011;68863;49.528;11.010;2023-04-15T03:32:39;4.20;;;1.57;;
79412;SDS011;68863;49.528;11.010;2023-04-15T03:33:39;5.65;;;2.10;;
79412;SDS011;68863;49.528;11.010;2023-04-15T03:34:40;5.20;;;1.97;;
79412;SDS011;68863;49.528;11.010;2023-04-15T03:35:41;5.18;;;2.22;;
79412;SDS011;68863;49.528;11.010;2023-04-15T03:36:41;5.57;;;2.35;;
79412;SDS011;68863;49.528;11.010;2023-04-15T03:37:41;5.53;;;2.22;;
79412;SDS011;68863;49.528;11.010;2023-04-15T03:38:42;5.43;;;2.00;;
79412;SDS011;68863;49.528;11.010;2023-04-15T03:39:42;4.68;;;1.88;;
79412;SDS011;68863;49.528;11.010;2023-04-15T03:40:43;4.73;;;1.90;;
79412;SDS011;68863;49.528;11.010;2023-04-15T03:41:45;5.43;;;2.22;;
79412;SDS011;68863;49.528;11.010;2023-04-15T03:42:45;4.87;;;1.90;;
79412;SDS011;68863;49.528;11.010;2023-04-15T03:43:45;5.13;;;2.03;;
79412;SDS011;68863;49.528;11.010;2023-04-15T03:44:45;5.07;;;2.10;;
79412;SDS011;68863;49.528;11.010;2023-04-15T03:45:46;4.73;;;2.30;;
79412;SDS011;68863;49.528;11.010;2023-04-15T03:46:46;5.32;;;1.88;;
79412;SDS011;68863;49.528;11.010;2023-04-15T03:47:46;5.65;;;1.85;;
79412;SDS011;68863;49.528;11.010;2023-04-15T03:48:47;5.32;;;2.13;;
79412;SDS011;68863;49.528;11.010;2023-04-15T03:49:47;6.18;;;2.00;;
79412;SDS011;68863;49.528;11.010;2023-04-15T03:50:47;4.20;;;1.63;;
79412;SDS011;68863;49.528;11.010;2023-04-15T03:51:48;5.33;;;2.10;;
79412;SDS011;68863;49.528;11.010;2023-04-15T03:52:48;5.93;;;2.07;;
79412;SDS011;68863;49.528;11.010;2023-04-15T03:53:48;5.77;;;1.97;;
79412;SDS011;68863;49.528;11.010;2023-04-15T03:54:48;4.20;;;1.73;;
79412;SDS011;68863;49.528;11.010;2023-04-15T03:55:49;5.13;;;2.20;;
79412;SDS011;68863;49.528;11.010;2023-04-15T03:56:49;4.88;;;2.00;;
79412;SDS011;68863;49.528;11.010;2023-04-15T03:57:49;6.45;;;2.08;;
79412;SDS011;68863;49.528;11.010;2023-04-15T03:58:50;5.88;;;2.42;;
79412;SDS011;68863;49.528;11.010;2023-04-15T03:59:50;4.82;;;1.95;;
79412;SDS011;68863;49.528;11.010;2023-04-15T04:00:50;5.37;;;2.20;;
79412;SDS011;68863;49.528;11.010;2023-04-15T04:01:51;5.10;;;2.17;;
79412;SDS011;68863;49.528;11.010;2023-04-15T04:02:51;5.13;;;2.10;;
79412;SDS011;68863;49.528;11.010;2023-04-15T04:03:52;7.88;;;2.45;;
79412;SDS011;68863;49.528;11.010;2023-04-15T04:04:52;4.78;;;2.10;;
79412;SDS011;68863;49.528;11.010;2023-04-15T04:05:52;5.13;;;2.20;;
79412;SDS011;68863;49.528;11.010;2023-04-15T04:06:53;5.72;;;2.20;;
79412;SDS011;68863;49.528;11.010;2023-04-15T04:07:53;5.63;;;2.03;;
79412;SDS011;68863;49.528;11.010;2023-04-15T04:08:53;5.45;;;2.33;;
79412;SDS011;68863;49.528;11.010;2023-04-15T04:09:53;6.80;;;2.40;;
79412;SDS011;68863;49.528;11.010;2023-04-15T04:10:54;5.25;;;2.25;;
79412;SDS011;68863;49.528;11.010;2023-04-15T04:11:54;6.15;;;2.45;;
79412;SDS011;68863;49.528;11.010;2023-04-15T04:12:55;6.13;;;2.45;;
79412;SDS011;68863;49.528;11.010;2023-04-15T04:13:55;6.35;;;2.58;;
79412;SDS011;68863;49.528;11.010;2023-04-15T04:14:55;6.13;;;2.60;;
79412;SDS011;68863;49.528;11.010;2023-04-15T04:15:56;6.27;;;2.40;;
79412;SDS011;68863;49.528;11.010;2023-04-15T04:16:56;5.97;;;2.70;;
79412;SDS011;68863;49.528;11.010;2023-04-15T04:17:56;6.72;;;2.22;;
79412;SDS011;68863;49.528;11.010;2023-04-15T04:18:56;5.77;;;2.30;;
79412;SDS011;68863;49.528;11.010;2023-04-15T04:19:57;6.27;;;2.30;;
79412;SDS011;68863;49.528;11.010;2023-04-15T04:20:57;5.28;;;2.17;;
79412;SDS011;68863;49.528;11.010;2023-04-15T04:21:57;7.43;;;2.75;;
79412;SDS011;68863;49.528;11.010;2023-04-15T04:22:58;5.67;;;2.50;;
79412;SDS011;68863;49.528;11.010;2023-04-15T04:23:58;7.10;;;2.50;;
79412;SDS011;68863;49.528;11.010;2023-04-15T04:24:59;6.53;;;2.83;;
79412;SDS011;68863;49.528;11.010;2023-04-15T04:26:01;6.75;;;2.70;;
79412;SDS011;68863;49.528;11.010;2023-04-15T04:27:01;5.97;;;2.40;;
79412;SDS011;68863;49.528;11.010;2023-04-15T04:28:02;7.68;;;2.25;;
79412;SDS011;68863;49.528;11.010;2023-04-15T04:29:02;6.28;;;2.35;;
79412;SDS011;68863;49.528;11.010;2023-04-15T04:30:03;7.17;;;2.60;;
79412;SDS011;68863;49.528;11.010;2023-04-15T04:31:05;5.65;;;2.40;;
79412;SDS011;68863;49.528;11.010;2023-04-15T04:32:06;6.13;;;2.72;;
79412;SDS011;68863;49.528;11.010;2023-04-15T04:33:06;6.00;;;2.38;;
79412;SDS011;68863;49.528;11.010;2023-04-15T04:34:07;7.25;;;2.60;;
79412;SDS011;68863;49.528;11.010;2023-04-15T04:35:07;6.50;;;2.58;;
79412;SDS011;68863;49.528;11.010;2023-04-15T04:36:08;5.75;;;2.53;;
79412;SDS011;68863;49.528;11.010;2023-04-15T04:37:08;5.95;;;2.38;;
79412;SDS011;68863;49.528;11.010;2023-04-15T04:38:08;5.43;;;2.20;;
79412;SDS011;68863;49.528;11.010;2023-04-15T04:39:08;6.93;;;2.63;;
79412;SDS011;68863;49.528;11.010;2023-04-15T04:40:09;6.53;;;2.65;;
79412;SDS011;68863;49.528;11.010;2023-04-15T04:41:10;7.60;;;2.85;;
79412;SDS011;68863;49.528;11.010;2023-04-15T04:42:10;6.25;;;2.70;;
79412;SDS011;68863;49.528;11.010;2023-04-15T04:43:10;5.68;;;2.65;;
79412;SDS011;68863;49.528;11.010;2023-04-15T04:44:11;5.68;;;2.70;;
79412;SDS011;68863;49.528;11.010;2023-04-15T04:45:11;7.20;;;3.15;;
79412;SDS011;68863;49.528;11.010;2023-04-15T04:46:12;6.93;;;2.63;;
79412;SDS011;68863;49.528;11.010;2023-04-15T04:47:12;5.73;;;2.23;;
79412;SDS011;68863;49.528;11.010;2023-04-15T04:48:12;7.63;;;2.55;;
79412;SDS011;68863;49.528;11.010;2023-04-15T04:49:13;6.10;;;2.77;;
79412;SDS011;68863;49.528;11.010;2023-04-15T04:50:13;5.93;;;2.80;;
79412;SDS011;68863;49.528;11.010;2023-04-15T04:51:13;6.43;;;2.65;;
79412;SDS011;68863;49.528;11.010;2023-04-15T04:52:14;6.85;;;2.75;;
79412;SDS011;68863;49.528;11.010;2023-04-15T04:53:14;7.35;;;2.88;;
79412;SDS011;68863;49.528;11.010;2023-04-15T04:54:15;7.25;;;2.67;;
79412;SDS011;68863;49.528;11.010;2023-04-15T04:55:15;6.80;;;2.85;;
79412;SDS011;68863;49.528;11.010;2023-04-15T04:56:16;6.57;;;2.75;;
79412;SDS011;68863;49.528;11.010;2023-04-15T04:57:16;6.23;;;2.97;;
79412;SDS011;68863;49.528;11.010;2023-04-15T04:58:16;6.53;;;2.50;;
79412;SDS011;68863;49.528;11.010;2023-04-15T04:59:17;6.25;;;2.65;;
79412;SDS011;68863;49.528;11.010;2023-04-15T05:00:17;5.87;;;2.53;;
79412;SDS011;68863;49.528;11.010;2023-04-15T05:01:18;6.85;;;2.55;;
79412;SDS011;68863;49.528;11.010;2023-04-15T05:02:18;5.78;;;2.53;;
79412;SDS011;68863;49.528;11.010;2023-04-15T05:03:18;6.03;;;2.80;;
79412;SDS011;68863;49.528;11.010;2023-04-15T05:04:19;6.28;;;2.90;;
79412;SDS011;68863;49.528;11.010;2023-04-15T05:05:19;6.22;;;2.90;;
79412;SDS011;68863;49.528;11.010;2023-04-15T05:06:19;7.53;;;2.93;;
79412;SDS011;68863;49.528;11.010;2023-04-15T05:07:20;7.28;;;2.92;;
79412;SDS011;68863;49.528;11.010;2023-04-15T05:08:21;6.45;;;2.88;;
79412;SDS011;68863;49.528;11.010;2023-04-15T05:09:21;7.07;;;2.83;;
79412;SDS011;68863;49.528;11.010;2023-04-15T05:10:21;7.13;;;3.10;;
79412;SDS011;68863;49.528;11.010;2023-04-15T05:11:22;6.70;;;2.78;;
79412;SDS011;68863;49.528;11.010;2023-04-15T05:12:22;5.72;;;2.63;;
79412;SDS011;68863;49.528;11.010;2023-04-15T05:13:22;6.22;;;2.53;;
79412;SDS011;68863;49.528;11.010;2023-04-15T05:14:22;7.38;;;3.10;;
79412;SDS011;68863;49.528;11.010;2023-04-15T05:15:23;6.78;;;2.78;;
79412;SDS011;68863;49.528;11.010;2023-04-15T05:16:23;6.20;;;3.00;;
79412;SDS011;68863;49.528;11.010;2023-04-15T05:17:24;5.90;;;2.55;;
79412;SDS011;68863;49.528;11.010;2023-04-15T05:18:25;6.43;;;2.85;;
79412;SDS011;68863;49.528;11.010;2023-04-15T05:19:25;6.22;;;2.90;;
79412;SDS011;68863;49.528;11.010;2023-04-15T05:20:25;8.02;;;2.90;;
79412;SDS011;68863;49.528;11.010;2023-04-15T05:21:26;6.70;;;3.10;;
79412;SDS011;68863;49.528;11.010;2023-04-15T05:22:26;5.60;;;2.53;;
79412;SDS011;68863;49.528;11.010;2023-04-15T05:23:26;5.43;;;2.40;;
79412;SDS011;68863;49.528;11.010;2023-04-15T05:24:27;6.05;;;2.78;;
79412;SDS011;68863;49.528;11.010;2023-04-15T05:25:27;7.00;;;2.80;;
79412;SDS011;68863;49.528;11.010;2023-04-15T05:26:28;6.68;;;2.97;;
79412;SDS011;68863;49.528;11.010;2023-04-15T05:27:28;6.32;;;2.75;;
79412;SDS011;68863;49.528;11.010;2023-04-15T05:28:28;8.18;;;3.20;;
79412;SDS011;68863;49.528;11.010;2023-04-15T05:29:29;6.13;;;3.05;;
79412;SDS011;68863;49.528;11.010;2023-04-15T05:30:29;6.18;;;2.67;;
79412;SDS011;68863;49.528;11.010;2023-04-15T05:31:30;6.22;;;2.60;;
79412;SDS011;68863;49.528;11.010;2023-04-15T05:32:30;7.03;;;2.40;;
79412;SDS011;68863;49.528;11.010;2023-04-15T05:33:30;6.50;;;2.47;;
79412;SDS011;68863;49.528;11.010;2023-04-15T05:34:31;6.97;;;2.88;;
79412;SDS011;68863;49.528;11.010;2023-04-15T05:35:31;5.77;;;2.47;;
79412;SDS011;68863;49.528;11.010;2023-04-15T05:36:31;6.38;;;2.63;;
79412;SDS011;68863;49.528;11.010;2023-04-15T05:37:31;6.05;;;2.80;;
79412;SDS011;68863;49.528;11.010;2023-04-15T05:38:32;7.78;;;2.95;;
79412;SDS011;68863;49.528;11.010;2023-04-15T05:39:32;6.67;;;2.67;;
79412;SDS011;68863;49.528;11.010;2023-04-15T05:40:32;8.10;;;3.13;;
79412;SDS011;68863;49.528;11.010;2023-04-15T05:41:33;6.93;;;2.88;;
79412;SDS011;68863;49.528;11.010;2023-04-15T05:42:33;7.00;;;2.45;;
79412;SDS011;68863;49.528;11.010;2023-04-15T05:43:34;7.90;;;3.15;;
79412;SDS011;68863;49.528;11.010;2023-04-15T05:44:34;8.10;;;3.22;;
79412;SDS011;68863;49.528;11.010;2023-04-15T05:45:35;7.50;;;2.92;;
79412;SDS011;68863;49.528;11.010;2023-04-15T05:46:35;6.35;;;2.83;;
79412;SDS011;68863;49.528;11.010;2023-04-15T05:47:36;6.55;;;2.90;;
79412;SDS011;68863;49.528;11.010;2023-04-15T05:48:36;6.63;;;3.08;;
79412;SDS011;68863;49.528;11.010;2023-04-15T05:49:36;7.35;;;3.25;;
79412;SDS011;68863;49.528;11.010;2023-04-15T05:50:39;6.63;;;3.05;;
79412;SDS011;68863;49.528;11.010;2023-04-15T05:51:40;7.32;;;3.13;;
79412;SDS011;68863;49.528;11.010;2023-04-15T05:52:41;6.53;;;3.28;;
79412;SDS011;68863;49.528;11.010;2023-04-15T05:53:41;6.85;;;2.78;;
79412;SDS011;68863;49.528;11.010;2023-04-15T05:54:41;7.32;;;3.00;;
79412;SDS011;68863;49.528;11.010;2023-04-15T05:55:42;6.97;;;3.10;;
79412;SDS011;68863;49.528;11.010;2023-04-15T05:56:42;7.30;;;3.10;;
79412;SDS011;68863;49.528;11.010;2023-04-15T05:57:42;6.90;;;3.23;;
79412;SDS011;68863;49.528;11.010;2023-04-15T05:58:42;7.22;;;2.90;;
79412;SDS011;68863;49.528;11.010;2023-04-15T05:59:43;7.22;;;3.35;;
79412;SDS011;68863;49.528;11.010;2023-04-15T06:00:43;7.30;;;3.10;;
79412;SDS011;68863;49.528;11.010;2023-04-15T06:01:45;6.75;;;3.15;;
79412;SDS011;68863;49.528;11.010;2023-04-15T06:02:45;6.25;;;3.08;;